sensor_id;sensor_type;location;lat;lon;timestamp;P1;durP1;ratioP1;P2;durP2;ratioP2
20697;SDS011;10508;50.956;4.640;2023-04-15T00:01:41;2.72;;;1.90;;
20697;SDS011;10508;50.956;4.640;2023-04-15T00:04:07;5.28;;;2.00;;
20697;SDS011;10508;50.956;4.640;2023-04-15T00:06:33;3.75;;;1.92;;
20697;SDS011;10508;50.956;4.640;2023-04-15T00:08:59;3.97;;;2.30;;
20697;SDS011;10508;50.956;4.640;2023-04-15T00:11:25;9.60;;;2.55;;
20697;SDS011;10508;50.956;4.640;2023-04-15T00:13:51;3.58;;;1.75;;
20697;SDS011;10508;50.956;4.640;2023-04-15T00:16:17;5.80;;;2.33;;
20697;SDS011;10508;50.956;4.640;2023-04-15T00:18:43;4.43;;;1.95;;
20697;SDS011;10508;50.956;4.640;2023-04-15T00:21:09;3.90;;;1.95;;
20697;SDS011;10508;50.956;4.640;2023-04-15T00:23:35;7.80;;;2.45;;
20697;SDS011;10508;50.956;4.640;2023-04-15T00:26:01;4.68;;;2.10;;
20697;SDS011;10508;50.956;4.640;2023-04-15T00:28:27;3.70;;;2.15;;
20697;SDS011;10508;50.956;4.640;2023-04-15T00:30:53;9.80;;;2.40;;
20697;SDS011;10508;50.956;4.640;2023-04-15T00:33:19;7.80;;;2.40;;
20697;SDS011;10508;50.956;4.640;2023-04-15T00:35:45;5.13;;;2.13;;
20697;SDS011;10508;50.956;4.640;2023-04-15T00:38:11;5.43;;;2.30;;
20697;SDS011;10508;50.956;4.640;2023-04-15T00:40:37;7.95;;;2.33;;
20697;SDS011;10508;50.956;4.640;2023-04-15T00:43:03;3.83;;;1.98;;
20697;SDS011;10508;50.956;4.640;2023-04-15T00:45:29;4.03;;;2.13;;
20697;SDS011;10508;50.956;4.640;2023-04-15T00:47:56;6.05;;;2.05;;
20697;SDS011;10508;50.956;4.640;2023-04-15T00:50:22;4.22;;;1.98;;
20697;SDS011;10508;50.956;4.640;2023-04-15T00:52:48;4.40;;;2.05;;
20697;SDS011;10508;50.956;4.640;2023-04-15T00:55:14;5.72;;;1.80;;
20697;SDS011;10508;50.956;4.640;2023-04-15T00:57:40;6.85;;;2.53;;
20697;SDS011;10508;50.956;4.640;2023-04-15T01:00:07;14.85;;;2.65;;
20697;SDS011;10508;50.956;4.640;2023-04-15T01:02:35;6.25;;;2.03;;
20697;SDS011;10508;50.956;4.640;2023-04-15T01:05:01;6.78;;;1.80;;
20697;SDS011;10508;50.956;4.640;2023-04-15T01:07:28;4.80;;;2.35;;
20697;SDS011;10508;50.956;4.640;2023-04-15T01:09:54;5.35;;;1.58;;
20697;SDS011;10508;50.956;4.640;2023-04-15T01:12:20;3.40;;;2.00;;
20697;SDS011;10508;50.956;4.640;2023-04-15T01:14:47;11.82;;;2.60;;
20697;SDS011;10508;50.956;4.640;2023-04-15T01:17:13;5.35;;;2.00;;
20697;SDS011;10508;50.956;4.640;2023-04-15T01:19:39;4.57;;;2.55;;
20697;SDS011;10508;50.956;4.640;2023-04-15T01:22:05;8.07;;;2.30;;
20697;SDS011;10508;50.956;4.640;2023-04-15T01:24:31;5.30;;;2.30;;
20697;SDS011;10508;50.956;4.640;2023-04-15T01:26:58;5.95;;;2.28;;
20697;SDS011;10508;50.956;4.640;2023-04-15T01:29:24;3.45;;;2.20;;
20697;SDS011;10508;50.956;4.640;2023-04-15T01:31:51;10.38;;;2.45;;
20697;SDS011;10508;50.956;4.640;2023-04-15T01:34:18;8.77;;;2.65;;
20697;SDS011;10508;50.956;4.640;2023-04-15T01:36:44;4.15;;;2.20;;
20697;SDS011;10508;50.956;4.640;2023-04-15T01:39:10;5.28;;;2.58;;
20697;SDS011;10508;50.956;4.640;2023-04-15T01:41:36;4.82;;;2.47;;
20697;SDS011;10508;50.956;4.640;2023-04-15T01:44:02;6.55;;;2.40;;
20697;SDS011;10508;50.956;4.640;2023-04-15T01:46:28;5.80;;;2.45;;
20697;SDS011;10508;50.956;4.640;2023-04-15T01:48:57;5.00;;;2.20;;
20697;SDS011;10508;50.956;4.640;2023-04-15T01:51:23;5.00;;;2.35;;
20697;SDS011;10508;50.956;4.640;2023-04-15T01:53:49;3.63;;;2.10;;
20697;SDS011;10508;50.956;4.640;2023-04-15T01:56:16;3.25;;;1.95;;
20697;SDS011;10508;50.956;4.640;2023-04-15T01:58:42;4.32;;;2.35;;
20697;SDS011;10508;50.956;4.640;2023-04-15T02:01:09;7.05;;;2.10;;
20697;SDS011;10508;50.956;4.640;2023-04-15T02:03:35;6.72;;;2.65;;
20697;SDS011;10508;50.956;4.640;2023-04-15T02:06:01;5.53;;;2.30;;
20697;SDS011;10508;50.956;4.640;2023-04-15T02:08:28;7.25;;;2.92;;
20697;SDS011;10508;50.956;4.640;2023-04-15T02:10:54;4.10;;;2.40;;
20697;SDS011;10508;50.956;4.640;2023-04-15T02:13:20;5.68;;;2.72;;
20697;SDS011;10508;50.956;4.640;2023-04-15T02:15:47;14.25;;;3.53;;
20697;SDS011;10508;50.956;4.640;2023-04-15T02:18:14;6.93;;;3.10;;
20697;SDS011;10508;50.956;4.640;2023-04-15T02:20:40;5.75;;;2.83;;
20697;SDS011;10508;50.956;4.640;2023-04-15T02:23:07;8.50;;;2.78;;
20697;SDS011;10508;50.956;4.640;2023-04-15T02:25:33;5.75;;;2.90;;
20697;SDS011;10508;50.956;4.640;2023-04-15T02:28:00;8.07;;;2.38;;
20697;SDS011;10508;50.956;4.640;2023-04-15T02:30:38;4.68;;;2.45;;
20697;SDS011;10508;50.956;4.640;2023-04-15T02:33:05;5.32;;;2.40;;
20697;SDS011;10508;50.956;4.640;2023-04-15T02:35:31;6.03;;;2.47;;
20697;SDS011;10508;50.956;4.640;2023-04-15T02:37:57;14.02;;;3.47;;
20697;SDS011;10508;50.956;4.640;2023-04-15T02:40:24;8.23;;;3.25;;
20697;SDS011;10508;50.956;4.640;2023-04-15T02:42:51;8.30;;;2.80;;
20697;SDS011;10508;50.956;4.640;2023-04-15T02:45:17;7.00;;;2.67;;
20697;SDS011;10508;50.956;4.640;2023-04-15T02:47:47;9.07;;;6.30;;
20697;SDS011;10508;50.956;4.640;2023-04-15T02:50:13;8.48;;;3.33;;
20697;SDS011;10508;50.956;4.640;2023-04-15T02:52:40;6.85;;;2.80;;
20697;SDS011;10508;50.956;4.640;2023-04-15T02:55:06;7.60;;;3.17;;
20697;SDS011;10508;50.956;4.640;2023-04-15T02:57:32;6.88;;;2.80;;
20697;SDS011;10508;50.956;4.640;2023-04-15T03:00:01;7.15;;;2.85;;
20697;SDS011;10508;50.956;4.640;2023-04-15T03:02:27;7.45;;;2.65;;
20697;SDS011;10508;50.956;4.640;2023-04-15T03:04:58;8.93;;;2.95;;
20697;SDS011;10508;50.956;4.640;2023-04-15T03:07:24;6.30;;;2.92;;
20697;SDS011;10508;50.956;4.640;2023-04-15T03:09:50;10.23;;;2.92;;
20697;SDS011;10508;50.956;4.640;2023-04-15T03:12:16;7.68;;;3.40;;
20697;SDS011;10508;50.956;4.640;2023-04-15T03:14:42;7.07;;;3.05;;
20697;SDS011;10508;50.956;4.640;2023-04-15T03:17:08;5.13;;;2.75;;
20697;SDS011;10508;50.956;4.640;2023-04-15T03:19:34;9.60;;;4.07;;
20697;SDS011;10508;50.956;4.640;2023-04-15T03:22:00;6.28;;;3.30;;
20697;SDS011;10508;50.956;4.640;2023-04-15T03:24:26;7.40;;;3.63;;
20697;SDS011;10508;50.956;4.640;2023-04-15T03:26:53;8.23;;;3.15;;
20697;SDS011;10508;50.956;4.640;2023-04-15T03:29:20;8.80;;;3.70;;
20697;SDS011;10508;50.956;4.640;2023-04-15T03:31:46;8.48;;;3.83;;
20697;SDS011;10508;50.956;4.640;2023-04-15T03:34:12;7.80;;;3.25;;
20697;SDS011;10508;50.956;4.640;2023-04-15T03:36:38;7.55;;;3.38;;
20697;SDS011;10508;50.956;4.640;2023-04-15T03:39:04;7.93;;;3.38;;
20697;SDS011;10508;50.956;4.640;2023-04-15T03:41:30;6.07;;;2.88;;
20697;SDS011;10508;50.956;4.640;2023-04-15T03:43:56;7.22;;;3.47;;
20697;SDS011;10508;50.956;4.640;2023-04-15T03:46:22;7.25;;;3.40;;
20697;SDS011;10508;50.956;4.640;2023-04-15T03:48:48;11.75;;;3.97;;
20697;SDS011;10508;50.956;4.640;2023-04-15T03:51:15;8.77;;;3.60;;
20697;SDS011;10508;50.956;4.640;2023-04-15T03:53:41;8.55;;;3.35;;
20697;SDS011;10508;50.956;4.640;2023-04-15T03:56:07;7.00;;;3.22;;
20697;SDS011;10508;50.956;4.640;2023-04-15T03:58:33;5.70;;;3.47;;
20697;SDS011;10508;50.956;4.640;2023-04-15T04:00:59;8.43;;;3.70;;
20697;SDS011;10508;50.956;4.640;2023-04-15T04:03:25;5.95;;;3.40;;
20697;SDS011;10508;50.956;4.640;2023-04-15T04:05:51;10.77;;;3.60;;
20697;SDS011;10508;50.956;4.640;2023-04-15T04:08:17;9.05;;;2.90;;
20697;SDS011;10508;50.956;4.640;2023-04-15T04:10:43;7.22;;;3.03;;
20697;SDS011;10508;50.956;4.640;2023-04-15T04:13:09;10.52;;;3.78;;
20697;SDS011;10508;50.956;4.640;2023-04-15T04:15:35;5.85;;;2.95;;
20697;SDS011;10508;50.956;4.640;2023-04-15T04:18:01;8.25;;;2.75;;
20697;SDS011;10508;50.956;4.640;2023-04-15T04:20:27;9.23;;;3.83;;
20697;SDS011;10508;50.956;4.640;2023-04-15T04:23:10;7.22;;;3.17;;
20697;SDS011;10508;50.956;4.640;2023-04-15T04:25:36;8.10;;;4.13;;
20697;SDS011;10508;50.956;4.640;2023-04-15T04:28:03;11.30;;;3.80;;
20697;SDS011;10508;50.956;4.640;2023-04-15T04:30:29;9.48;;;3.90;;
20697;SDS011;10508;50.956;4.640;2023-04-15T04:32:55;6.82;;;3.85;;
20697;SDS011;10508;50.956;4.640;2023-04-15T04:35:21;14.80;;;4.45;;
20697;SDS011;10508;50.956;4.640;2023-04-15T04:37:47;6.88;;;3.53;;
20697;SDS011;10508;50.956;4.640;2023-04-15T04:40:13;11.48;;;3.53;;
20697;SDS011;10508;50.956;4.640;2023-04-15T04:42:39;7.85;;;3.85;;
20697;SDS011;10508;50.956;4.640;2023-04-15T04:45:08;5.93;;;3.60;;
20697;SDS011;10508;50.956;4.640;2023-04-15T04:47:34;5.78;;;3.50;;
20697;SDS011;10508;50.956;4.640;2023-04-15T04:50:00;9.15;;;4.07;;
20697;SDS011;10508;50.956;4.640;2023-04-15T04:52:26;9.60;;;4.50;;
20697;SDS011;10508;50.956;4.640;2023-04-15T04:54:52;8.55;;;3.85;;
20697;SDS011;10508;50.956;4.640;2023-04-15T04:57:18;7.90;;;3.65;;
20697;SDS011;10508;50.956;4.640;2023-04-15T04:59:44;7.70;;;3.78;;
20697;SDS011;10508;50.956;4.640;2023-04-15T05:02:10;11.40;;;3.75;;
20697;SDS011;10508;50.956;4.640;2023-04-15T05:04:36;7.13;;;3.53;;
20697;SDS011;10508;50.956;4.640;2023-04-15T05:07:02;6.40;;;3.90;;
20697;SDS011;10508;50.956;4.640;2023-04-15T05:09:28;6.00;;;3.03;;
20697;SDS011;10508;50.956;4.640;2023-04-15T05:11:56;17.20;;;4.18;;
20697;SDS011;10508;50.956;4.640;2023-04-15T05:14:22;12.00;;;4.13;;
20697;SDS011;10508;50.956;4.640;2023-04-15T05:16:48;8.27;;;4.13;;
20697;SDS011;10508;50.956;4.640;2023-04-15T05:19:14;7.47;;;3.47;;
20697;SDS011;10508;50.956;4.640;2023-04-15T05:21:40;6.32;;;4.00;;
20697;SDS011;10508;50.956;4.640;2023-04-15T05:24:25;9.57;;;4.50;;
20697;SDS011;10508;50.956;4.640;2023-04-15T05:26:51;10.70;;;4.82;;
20697;SDS011;10508;50.956;4.640;2023-04-15T05:29:17;10.90;;;4.10;;
20697;SDS011;10508;50.956;4.640;2023-04-15T05:31:43;5.32;;;3.55;;
20697;SDS011;10508;50.956;4.640;2023-04-15T05:34:09;9.48;;;3.65;;
20697;SDS011;10508;50.956;4.640;2023-04-15T05:36:36;7.00;;;3.80;;
20697;SDS011;10508;50.956;4.640;2023-04-15T05:39:02;12.23;;;4.85;;
20697;SDS011;10508;50.956;4.640;2023-04-15T05:41:28;7.90;;;4.07;;
20697;SDS011;10508;50.956;4.640;2023-04-15T05:43:54;7.22;;;4.03;;
20697;SDS011;10508;50.956;4.640;2023-04-15T05:46:20;10.35;;;4.50;;
20697;SDS011;10508;50.956;4.640;2023-04-15T05:48:46;12.73;;;4.85;;
20697;SDS011;10508;50.956;4.640;2023-04-15T05:51:12;7.05;;;4.22;;
20697;SDS011;10508;50.956;4.640;2023-04-15T05:53:38;10.43;;;4.40;;
20697;SDS011;10508;50.956;4.640;2023-04-15T05:56:05;12.63;;;4.95;;
20697;SDS011;10508;50.956;4.640;2023-04-15T05:58:32;10.93;;;4.78;;
20697;SDS011;10508;50.956;4.640;2023-04-15T06:00:58;10.93;;;3.90;;
20697;SDS011;10508;50.956;4.640;2023-04-15T06:03:42;10.48;;;4.88;;
20697;SDS011;10508;50.956;4.640;2023-04-15T06:06:09;8.65;;;4.22;;
20697;SDS011;10508;50.956;4.640;2023-04-15T06:08:35;10.27;;;4.05;;
20697;SDS011;10508;50.956;4.640;2023-04-15T06:11:01;7.82;;;3.72;;
20697;SDS011;10508;50.956;4.640;2023-04-15T06:13:27;14.27;;;4.45;;
20697;SDS011;10508;50.956;4.640;2023-04-15T06:15:54;9.00;;;4.15;;
20697;SDS011;10508;50.956;4.640;2023-04-15T06:18:20;11.18;;;4.03;;
20697;SDS011;10508;50.956;4.640;2023-04-15T06:20:46;15.15;;;4.40;;
20697;SDS011;10508;50.956;4.640;2023-04-15T06:23:12;11.23;;;4.75;;
20697;SDS011;10508;50.956;4.640;2023-04-15T06:25:38;9.18;;;4.32;;
20697;SDS011;10508;50.956;4.640;2023-04-15T06:28:04;7.45;;;4.32;;
20697;SDS011;10508;50.956;4.640;2023-04-15T06:30:30;11.40;;;4.20;;
20697;SDS011;10508;50.956;4.640;2023-04-15T06:32:56;5.88;;;4.10;;
20697;SDS011;10508;50.956;4.640;2023-04-15T06:35:22;12.07;;;4.63;;
20697;SDS011;10508;50.956;4.640;2023-04-15T06:37:48;10.13;;;4.20;;
20697;SDS011;10508;50.956;4.640;2023-04-15T06:40:15;11.60;;;4.10;;
20697;SDS011;10508;50.956;4.640;2023-04-15T06:42:41;8.85;;;4.25;;
20697;SDS011;10508;50.956;4.640;2023-04-15T06:45:07;10.80;;;4.80;;
20697;SDS011;10508;50.956;4.640;2023-04-15T06:47:33;14.65;;;4.75;;
20697;SDS011;10508;50.956;4.640;2023-04-15T06:50:00;9.48;;;4.47;;
20697;SDS011;10508;50.956;4.640;2023-04-15T06:52:26;11.27;;;4.90;;
20697;SDS011;10508;50.956;4.640;2023-04-15T06:54:52;12.30;;;4.93;;
20697;SDS011;10508;50.956;4.640;2023-04-15T06:57:18;11.80;;;5.15;;
20697;SDS011;10508;50.956;4.640;2023-04-15T06:59:44;7.05;;;4.45;;
20697;SDS011;10508;50.956;4.640;2023-04-15T07:02:11;10.35;;;4.93;;
20697;SDS011;10508;50.956;4.640;2023-04-15T07:04:38;12.63;;;5.20;;
20697;SDS011;10508;50.956;4.640;2023-04-15T07:07:05;12.27;;;5.35;;
20697;SDS011;10508;50.956;4.640;2023-04-15T07:09:32;15.00;;;6.05;;
20697;SDS011;10508;50.956;4.640;2023-04-15T07:11:58;12.10;;;6.47;;
20697;SDS011;10508;50.956;4.640;2023-04-15T07:14:24;11.50;;;5.82;;
20697;SDS011;10508;50.956;4.640;2023-04-15T07:16:50;12.07;;;6.72;;
20697;SDS011;10508;50.956;4.640;2023-04-15T07:19:16;9.80;;;5.80;;
20697;SDS011;10508;50.956;4.640;2023-04-15T07:21:42;12.60;;;6.57;;
20697;SDS011;10508;50.956;4.640;2023-04-15T07:24:08;19.52;;;6.78;;
20697;SDS011;10508;50.956;4.640;2023-04-15T07:26:34;13.75;;;6.43;;
20697;SDS011;10508;50.956;4.640;2023-04-15T07:29:00;13.93;;;7.43;;
20697;SDS011;10508;50.956;4.640;2023-04-15T07:31:26;14.65;;;7.00;;
20697;SDS011;10508;50.956;4.640;2023-04-15T07:33:52;18.08;;;7.32;;
20697;SDS011;10508;50.956;4.640;2023-04-15T07:36:18;13.82;;;7.80;;
20697;SDS011;10508;50.956;4.640;2023-04-15T07:38:44;19.95;;;7.75;;
20697;SDS011;10508;50.956;4.640;2023-04-15T07:41:10;19.40;;;7.80;;
20697;SDS011;10508;50.956;4.640;2023-04-15T07:43:36;17.08;;;7.07;;
20697;SDS011;10508;50.956;4.640;2023-04-15T07:46:03;17.20;;;7.40;;
20697;SDS011;10508;50.956;4.640;2023-04-15T07:48:30;13.30;;;6.65;;
20697;SDS011;10508;50.956;4.640;2023-04-15T07:50:56;10.73;;;6.75;;
20697;SDS011;10508;50.956;4.640;2023-04-15T07:53:22;19.50;;;7.05;;
20697;SDS011;10508;50.956;4.640;2023-04-15T07:55:49;11.18;;;6.28;;
20697;SDS011;10508;50.956;4.640;2023-04-15T07:58:15;15.27;;;7.30;;
20697;SDS011;10508;50.956;4.640;2023-04-15T08:00:41;14.38;;;5.38;;
20697;SDS011;10508;50.956;4.640;2023-04-15T08:03:07;15.15;;;6.38;;
20697;SDS011;10508;50.956;4.640;2023-04-15T08:05:33;12.32;;;5.47;;
20697;SDS011;10508;50.956;4.640;2023-04-15T08:07:59;11.50;;;6.10;;
20697;SDS011;10508;50.956;4.640;2023-04-15T08:10:25;13.70;;;5.57;;
20697;SDS011;10508;50.956;4.640;2023-04-15T08:12:51;9.40;;;5.57;;
20697;SDS011;10508;50.956;4.640;2023-04-15T08:15:18;11.77;;;5.80;;
20697;SDS011;10508;50.956;4.640;2023-04-15T08:17:44;15.55;;;5.68;;
20697;SDS011;10508;50.956;4.640;2023-04-15T08:20:11;9.18;;;4.90;;
20697;SDS011;10508;50.956;4.640;2023-04-15T08:22:37;14.82;;;5.25;;
20697;SDS011;10508;50.956;4.640;2023-04-15T08:25:04;11.02;;;4.63;;
20697;SDS011;10508;50.956;4.640;2023-04-15T08:27:30;10.32;;;5.10;;
20697;SDS011;10508;50.956;4.640;2023-04-15T08:29:56;11.38;;;5.20;;
20697;SDS011;10508;50.956;4.640;2023-04-15T08:32:22;11.10;;;5.60;;
20697;SDS011;10508;50.956;4.640;2023-04-15T08:34:50;12.65;;;5.38;;
20697;SDS011;10508;50.956;4.640;2023-04-15T08:37:17;13.82;;;6.00;;
20697;SDS011;10508;50.956;4.640;2023-04-15T08:39:43;10.63;;;5.95;;
20697;SDS011;10508;50.956;4.640;2023-04-15T08:42:10;10.73;;;5.85;;
20697;SDS011;10508;50.956;4.640;2023-04-15T08:44:36;11.55;;;5.72;;
20697;SDS011;10508;50.956;4.640;2023-04-15T08:47:05;11.23;;;5.68;;
20697;SDS011;10508;50.956;4.640;2023-04-15T08:49:32;9.80;;;5.80;;
20697;SDS011;10508;50.956;4.640;2023-04-15T08:52:00;13.75;;;5.95;;
20697;SDS011;10508;50.956;4.640;2023-04-15T08:54:28;13.23;;;6.40;;
20697;SDS011;10508;50.956;4.640;2023-04-15T08:56:56;10.75;;;5.70;;
20697;SDS011;10508;50.956;4.640;2023-04-15T08:59:22;11.30;;;5.88;;
20697;SDS011;10508;50.956;4.640;2023-04-15T09:01:49;13.23;;;6.25;;
20697;SDS011;10508;50.956;4.640;2023-04-15T09:04:15;10.55;;;5.60;;
20697;SDS011;10508;50.956;4.640;2023-04-15T09:06:41;11.18;;;5.00;;
20697;SDS011;10508;50.956;4.640;2023-04-15T09:09:07;11.18;;;5.65;;
20697;SDS011;10508;50.956;4.640;2023-04-15T09:11:34;9.07;;;5.32;;
20697;SDS011;10508;50.956;4.640;2023-04-15T09:14:00;10.88;;;5.38;;
20697;SDS011;10508;50.956;4.640;2023-04-15T09:16:31;10.07;;;4.80;;
20697;SDS011;10508;50.956;4.640;2023-04-15T09:18:57;12.32;;;5.07;;
20697;SDS011;10508;50.956;4.640;2023-04-15T09:21:23;8.82;;;4.82;;
20697;SDS011;10508;50.956;4.640;2023-04-15T09:23:53;8.18;;;4.43;;
20697;SDS011;10508;50.956;4.640;2023-04-15T09:26:29;9.40;;;4.80;;
20697;SDS011;10508;50.956;4.640;2023-04-15T09:29:01;8.13;;;3.80;;
20697;SDS011;10508;50.956;4.640;2023-04-15T09:31:30;8.65;;;3.78;;
20697;SDS011;10508;50.956;4.640;2023-04-15T09:33:56;6.57;;;4.00;;
20697;SDS011;10508;50.956;4.640;2023-04-15T09:36:22;10.75;;;4.28;;
20697;SDS011;10508;50.956;4.640;2023-04-15T09:38:57;6.88;;;3.72;;
20697;SDS011;10508;50.956;4.640;2023-04-15T09:41:23;6.38;;;3.53;;
20697;SDS011;10508;50.956;4.640;2023-04-15T09:43:50;7.72;;;2.90;;
20697;SDS011;10508;50.956;4.640;2023-04-15T09:46:16;5.82;;;2.65;;
20697;SDS011;10508;50.956;4.640;2023-04-15T09:48:42;6.13;;;3.20;;
20697;SDS011;10508;50.956;4.640;2023-04-15T09:51:08;4.55;;;3.30;;
20697;SDS011;10508;50.956;4.640;2023-04-15T09:53:34;4.80;;;2.70;;
20697;SDS011;10508;50.956;4.640;2023-04-15T09:56:01;4.70;;;2.83;;
20697;SDS011;10508;50.956;4.640;2023-04-15T09:58:28;5.85;;;2.95;;
20697;SDS011;10508;50.956;4.640;2023-04-15T10:00:54;4.55;;;2.45;;
20697;SDS011;10508;50.956;4.640;2023-04-15T10:03:22;2.90;;;2.25;;
20697;SDS011;10508;50.956;4.640;2023-04-15T10:05:48;5.70;;;2.75;;
20697;SDS011;10508;50.956;4.640;2023-04-15T10:08:16;5.13;;;3.03;;
20697;SDS011;10508;50.956;4.640;2023-04-15T10:10:43;4.25;;;2.60;;
20697;SDS011;10508;50.956;4.640;2023-04-15T10:13:09;7.80;;;2.88;;
20697;SDS011;10508;50.956;4.640;2023-04-15T10:15:36;3.53;;;2.35;;
20697;SDS011;10508;50.956;4.640;2023-04-15T10:18:02;6.25;;;2.55;;
20697;SDS011;10508;50.956;4.640;2023-04-15T10:20:30;7.63;;;2.72;;
20697;SDS011;10508;50.956;4.640;2023-04-15T10:22:56;3.40;;;2.28;;
20697;SDS011;10508;50.956;4.640;2023-04-15T10:25:22;6.20;;;2.35;;
20697;SDS011;10508;50.956;4.640;2023-04-15T10:27:50;3.83;;;2.25;;
20697;SDS011;10508;50.956;4.640;2023-04-15T10:30:17;4.07;;;2.50;;
20697;SDS011;10508;50.956;4.640;2023-04-15T10:32:43;3.70;;;2.15;;
20697;SDS011;10508;50.956;4.640;2023-04-15T10:35:09;7.70;;;3.20;;
20697;SDS011;10508;50.956;4.640;2023-04-15T10:37:36;7.40;;;3.17;;
20697;SDS011;10508;50.956;4.640;2023-04-15T10:40:22;6.20;;;3.00;;
20697;SDS011;10508;50.956;4.640;2023-04-15T10:42:48;4.55;;;2.75;;
20697;SDS011;10508;50.956;4.640;2023-04-15T10:45:15;5.57;;;3.40;;
20697;SDS011;10508;50.956;4.640;2023-04-15T10:47:42;6.45;;;3.03;;
20697;SDS011;10508;50.956;4.640;2023-04-15T10:50:08;7.28;;;2.45;;
20697;SDS011;10508;50.956;4.640;2023-04-15T10:52:34;4.20;;;2.40;;
20697;SDS011;10508;50.956;4.640;2023-04-15T10:55:14;4.18;;;2.00;;
20697;SDS011;10508;50.956;4.640;2023-04-15T10:58:00;5.15;;;2.35;;
20697;SDS011;10508;50.956;4.640;2023-04-15T11:00:30;3.67;;;2.38;;
20697;SDS011;10508;50.956;4.640;2023-04-15T11:05:22;6.25;;;2.92;;
20697;SDS011;10508;50.956;4.640;2023-04-15T11:08:08;5.28;;;2.47;;
20697;SDS011;10508;50.956;4.640;2023-04-15T11:13:19;4.63;;;2.60;;
20697;SDS011;10508;50.956;4.640;2023-04-15T11:15:52;3.85;;;2.55;;
20697;SDS011;10508;50.956;4.640;2023-04-15T11:18:21;6.78;;;2.30;;
20697;SDS011;10508;50.956;4.640;2023-04-15T11:20:51;5.30;;;2.60;;
20697;SDS011;10508;50.956;4.640;2023-04-15T11:23:19;4.38;;;2.53;;
20697;SDS011;10508;50.956;4.640;2023-04-15T11:25:53;5.60;;;2.58;;
20697;SDS011;10508;50.956;4.640;2023-04-15T11:28:19;3.88;;;2.30;;
20697;SDS011;10508;50.956;4.640;2023-04-15T11:30:45;4.28;;;2.30;;
20697;SDS011;10508;50.956;4.640;2023-04-15T11:33:12;3.20;;;2.05;;
20697;SDS011;10508;50.956;4.640;2023-04-15T11:35:39;3.55;;;1.73;;
20697;SDS011;10508;50.956;4.640;2023-04-15T11:38:10;4.60;;;1.38;;
20697;SDS011;10508;50.956;4.640;2023-04-15T11:40:36;3.47;;;1.45;;
20697;SDS011;10508;50.956;4.640;2023-04-15T11:46:00;4.35;;;1.40;;
20697;SDS011;10508;50.956;4.640;2023-04-15T11:48:27;2.95;;;1.52;;
20697;SDS011;10508;50.956;4.640;2023-04-15T11:50:57;2.72;;;1.60;;
20697;SDS011;10508;50.956;4.640;2023-04-15T11:53:24;6.05;;;2.45;;
20697;SDS011;10508;50.956;4.640;2023-04-15T11:55:50;5.28;;;2.33;;
20697;SDS011;10508;50.956;4.640;2023-04-15T12:00:47;5.32;;;2.10;;
20697;SDS011;10508;50.956;4.640;2023-04-15T12:03:23;4.43;;;2.30;;
20697;SDS011;10508;50.956;4.640;2023-04-15T12:11:13;2.45;;;1.42;;
20697;SDS011;10508;50.956;4.640;2023-04-15T12:13:49;3.60;;;1.15;;
20697;SDS011;10508;50.956;4.640;2023-04-15T12:16:16;1.42;;;1.17;;
20697;SDS011;10508;50.956;4.640;2023-04-15T12:18:43;2.85;;;1.23;;
20697;SDS011;10508;50.956;4.640;2023-04-15T12:21:10;4.20;;;1.10;;
20697;SDS011;10508;50.956;4.640;2023-04-15T12:23:39;2.10;;;1.13;;
20697;SDS011;10508;50.956;4.640;2023-04-15T12:26:13;4.05;;;1.27;;
20697;SDS011;10508;50.956;4.640;2023-04-15T12:28:39;5.70;;;1.70;;
20697;SDS011;10508;50.956;4.640;2023-04-15T12:31:09;4.60;;;1.50;;
20697;SDS011;10508;50.956;4.640;2023-04-15T12:33:37;2.67;;;1.23;;
20697;SDS011;10508;50.956;4.640;2023-04-15T12:36:03;2.78;;;1.40;;
20697;SDS011;10508;50.956;4.640;2023-04-15T12:38:29;1.85;;;1.00;;
20697;SDS011;10508;50.956;4.640;2023-04-15T12:40:56;3.58;;;0.98;;
20697;SDS011;10508;50.956;4.640;2023-04-15T12:43:23;2.20;;;1.23;;
20697;SDS011;10508;50.956;4.640;2023-04-15T12:45:49;3.97;;;1.10;;
20697;SDS011;10508;50.956;4.640;2023-04-15T12:48:15;5.05;;;1.98;;
20697;SDS011;10508;50.956;4.640;2023-04-15T12:50:41;3.67;;;1.50;;
20697;SDS011;10508;50.956;4.640;2023-04-15T12:53:07;3.97;;;1.40;;
20697;SDS011;10508;50.956;4.640;2023-04-15T12:55:33;2.53;;;1.55;;
20697;SDS011;10508;50.956;4.640;2023-04-15T12:57:59;4.00;;;1.17;;
20697;SDS011;10508;50.956;4.640;2023-04-15T13:00:25;2.97;;;1.25;;
20697;SDS011;10508;50.956;4.640;2023-04-15T13:02:52;2.53;;;1.33;;
20697;SDS011;10508;50.956;4.640;2023-04-15T13:05:18;5.13;;;1.50;;
20697;SDS011;10508;50.956;4.640;2023-04-15T13:07:44;3.55;;;1.20;;
20697;SDS011;10508;50.956;4.640;2023-04-15T13:10:11;4.63;;;1.30;;
20697;SDS011;10508;50.956;4.640;2023-04-15T13:12:37;1.88;;;1.30;;
20697;SDS011;10508;50.956;4.640;2023-04-15T13:15:03;4.28;;;1.90;;
20697;SDS011;10508;50.956;4.640;2023-04-15T13:17:29;2.75;;;1.63;;
20697;SDS011;10508;50.956;4.640;2023-04-15T13:19:55;3.72;;;1.38;;
20697;SDS011;10508;50.956;4.640;2023-04-15T13:22:22;5.60;;;1.80;;
20697;SDS011;10508;50.956;4.640;2023-04-15T13:24:48;3.45;;;1.02;;
20697;SDS011;10508;50.956;4.640;2023-04-15T13:27:15;3.15;;;1.35;;
20697;SDS011;10508;50.956;4.640;2023-04-15T13:29:41;7.60;;;2.03;;
20697;SDS011;10508;50.956;4.640;2023-04-15T13:32:07;3.03;;;1.40;;
20697;SDS011;10508;50.956;4.640;2023-04-15T13:34:33;2.88;;;1.35;;
20697;SDS011;10508;50.956;4.640;2023-04-15T13:37:04;3.08;;;1.50;;
20697;SDS011;10508;50.956;4.640;2023-04-15T13:39:30;6.28;;;2.10;;
20697;SDS011;10508;50.956;4.640;2023-04-15T13:41:59;3.40;;;1.58;;
20697;SDS011;10508;50.956;4.640;2023-04-15T13:44:26;3.95;;;1.80;;
20697;SDS011;10508;50.956;4.640;2023-04-15T13:46:52;3.10;;;1.50;;
20697;SDS011;10508;50.956;4.640;2023-04-15T13:49:18;2.35;;;1.25;;
20697;SDS011;10508;50.956;4.640;2023-04-15T13:51:45;3.63;;;1.42;;
20697;SDS011;10508;50.956;4.640;2023-04-15T13:54:11;2.70;;;1.48;;
20697;SDS011;10508;50.956;4.640;2023-04-15T13:56:37;3.92;;;1.52;;
20697;SDS011;10508;50.956;4.640;2023-04-15T13:59:03;2.83;;;1.55;;
20697;SDS011;10508;50.956;4.640;2023-04-15T14:01:30;3.85;;;1.50;;
20697;SDS011;10508;50.956;4.640;2023-04-15T14:03:56;4.93;;;1.10;;
20697;SDS011;10508;50.956;4.640;2023-04-15T14:06:22;4.45;;;1.02;;
20697;SDS011;10508;50.956;4.640;2023-04-15T14:08:50;7.43;;;3.47;;
20697;SDS011;10508;50.956;4.640;2023-04-15T14:11:16;4.43;;;1.00;;
20697;SDS011;10508;50.956;4.640;2023-04-15T14:13:42;1.38;;;0.90;;
20697;SDS011;10508;50.956;4.640;2023-04-15T14:16:08;2.28;;;0.85;;
20697;SDS011;10508;50.956;4.640;2023-04-15T14:18:34;2.05;;;1.02;;
20697;SDS011;10508;50.956;4.640;2023-04-15T14:21:01;1.65;;;1.00;;
20697;SDS011;10508;50.956;4.640;2023-04-15T14:23:27;3.15;;;0.75;;
20697;SDS011;10508;50.956;4.640;2023-04-15T14:25:53;2.28;;;1.15;;
20697;SDS011;10508;50.956;4.640;2023-04-15T14:28:19;1.98;;;0.90;;
20697;SDS011;10508;50.956;4.640;2023-04-15T14:30:45;2.40;;;1.05;;
20697;SDS011;10508;50.956;4.640;2023-04-15T14:33:30;1.95;;;1.10;;
20697;SDS011;10508;50.956;4.640;2023-04-15T14:35:56;1.80;;;1.20;;
20697;SDS011;10508;50.956;4.640;2023-04-15T14:38:22;1.60;;;1.15;;
20697;SDS011;10508;50.956;4.640;2023-04-15T14:40:48;5.00;;;1.10;;
20697;SDS011;10508;50.956;4.640;2023-04-15T14:43:14;1.85;;;1.00;;
20697;SDS011;10508;50.956;4.640;2023-04-15T14:45:41;2.25;;;0.93;;
20697;SDS011;10508;50.956;4.640;2023-04-15T14:48:07;2.33;;;1.33;;
20697;SDS011;10508;50.956;4.640;2023-04-15T14:50:34;2.65;;;1.23;;
20697;SDS011;10508;50.956;4.640;2023-04-15T14:53:00;2.40;;;1.30;;
20697;SDS011;10508;50.956;4.640;2023-04-15T14:55:26;2.08;;;1.38;;
20697;SDS011;10508;50.956;4.640;2023-04-15T14:57:52;3.05;;;1.27;;